sensor_id;sensor_type;location;lat;lon;timestamp;P1;durP1;ratioP1;P2;durP2;ratioP2
50689;SDS011;71367;48.298;11.238;2024-03-25T00:02:25;5.85;;;1.98;;
50689;SDS011;71367;48.298;11.238;2024-03-25T00:17:30;7.85;;;2.22;;
50689;SDS011;71367;48.298;11.238;2024-03-25T00:32:33;4.18;;;2.08;;
50689;SDS011;71367;48.298;11.238;2024-03-25T00:47:37;4.05;;;2.20;;
50689;SDS011;71367;48.298;11.238;2024-03-25T01:02:41;7.95;;;2.47;;
50689;SDS011;71367;48.298;11.238;2024-03-25T01:17:44;7.82;;;1.98;;
50689;SDS011;71367;48.298;11.238;2024-03-25T01:32:47;5.18;;;1.95;;
50689;SDS011;71367;48.298;11.238;2024-03-25T01:47:50;5.35;;;2.17;;
50689;SDS011;71367;48.298;11.238;2024-03-25T02:02:54;6.40;;;2.53;;
50689;SDS011;71367;48.298;11.238;2024-03-25T02:17:57;6.10;;;2.70;;
50689;SDS011;71367;48.298;11.238;2024-03-25T02:33:00;7.78;;;2.88;;
50689;SDS011;71367;48.298;11.238;2024-03-25T02:48:04;8.32;;;3.30;;
50689;SDS011;71367;48.298;11.238;2024-03-25T03:03:07;5.80;;;2.90;;
50689;SDS011;71367;48.298;11.238;2024-03-25T03:18:10;6.80;;;2.58;;
50689;SDS011;71367;48.298;11.238;2024-03-25T03:33:14;8.32;;;3.13;;
50689;SDS011;71367;48.298;11.238;2024-03-25T03:48:17;15.85;;;3.42;;
50689;SDS011;71367;48.298;11.238;2024-03-25T04:03:20;7.57;;;2.88;;
50689;SDS011;71367;48.298;11.238;2024-03-25T04:18:23;8.02;;;3.00;;
50689;SDS011;71367;48.298;11.238;2024-03-25T04:33:29;5.38;;;2.67;;
50689;SDS011;71367;48.298;11.238;2024-03-25T04:48:32;6.38;;;3.15;;
50689;SDS011;71367;48.298;11.238;2024-03-25T05:03:35;7.07;;;3.30;;
50689;SDS011;71367;48.298;11.238;2024-03-25T05:18:37;6.93;;;3.08;;
50689;SDS011;71367;48.298;11.238;2024-03-25T05:33:39;5.75;;;2.78;;
50689;SDS011;71367;48.298;11.238;2024-03-25T05:48:41;6.65;;;3.00;;
50689;SDS011;71367;48.298;11.238;2024-03-25T06:03:43;11.57;;;3.38;;
50689;SDS011;71367;48.298;11.238;2024-03-25T06:18:46;7.25;;;2.90;;
50689;SDS011;71367;48.298;11.238;2024-03-25T06:33:48;8.05;;;3.50;;
50689;SDS011;71367;48.298;11.238;2024-03-25T06:49:09;11.37;;;2.73;;
50689;SDS011;71367;48.298;11.238;2024-03-25T07:04:11;6.55;;;3.20;;
50689;SDS011;71367;48.298;11.238;2024-03-25T07:19:13;6.78;;;3.35;;
50689;SDS011;71367;48.298;11.238;2024-03-25T07:34:15;4.38;;;2.50;;
50689;SDS011;71367;48.298;11.238;2024-03-25T07:49:21;5.97;;;3.13;;
50689;SDS011;71367;48.298;11.238;2024-03-25T08:04:24;7.60;;;3.55;;
50689;SDS011;71367;48.298;11.238;2024-03-25T08:19:26;6.90;;;3.35;;
50689;SDS011;71367;48.298;11.238;2024-03-25T08:34:28;8.70;;;3.83;;
50689;SDS011;71367;48.298;11.238;2024-03-25T08:49:30;9.18;;;3.53;;
50689;SDS011;71367;48.298;11.238;2024-03-25T09:04:32;8.60;;;4.53;;
50689;SDS011;71367;48.298;11.238;2024-03-25T09:19:35;6.80;;;3.67;;
50689;SDS011;71367;48.298;11.238;2024-03-25T09:34:37;6.20;;;3.72;;
50689;SDS011;71367;48.298;11.238;2024-03-25T09:49:40;5.40;;;3.10;;
50689;SDS011;71367;48.298;11.238;2024-03-25T10:04:44;5.75;;;2.30;;
50689;SDS011;71367;48.298;11.238;2024-03-25T10:19:49;3.85;;;1.92;;
50689;SDS011;71367;48.298;11.238;2024-03-25T10:34:51;4.07;;;1.98;;
50689;SDS011;71367;48.298;11.238;2024-03-25T10:49:55;4.80;;;1.90;;
50689;SDS011;71367;48.298;11.238;2024-03-25T11:04:59;3.63;;;1.58;;
50689;SDS011;71367;48.298;11.238;2024-03-25T11:20:08;5.35;;;2.67;;
50689;SDS011;71367;48.298;11.238;2024-03-25T11:35:12;5.22;;;1.60;;
50689;SDS011;71367;48.298;11.238;2024-03-25T11:50:16;4.93;;;1.80;;
50689;SDS011;71367;48.298;11.238;2024-03-25T12:05:19;3.78;;;1.65;;
50689;SDS011;71367;48.298;11.238;2024-03-25T12:20:22;3.42;;;1.70;;
50689;SDS011;71367;48.298;11.238;2024-03-25T12:35:25;3.42;;;1.77;;
50689;SDS011;71367;48.298;11.238;2024-03-25T12:50:27;4.93;;;1.30;;
50689;SDS011;71367;48.298;11.238;2024-03-25T13:05:31;2.58;;;1.20;;
50689;SDS011;71367;48.298;11.238;2024-03-25T13:20:33;3.47;;;1.20;;
50689;SDS011;71367;48.298;11.238;2024-03-25T13:35:36;2.20;;;1.35;;
50689;SDS011;71367;48.298;11.238;2024-03-25T13:50:38;3.50;;;1.10;;
50689;SDS011;71367;48.298;11.238;2024-03-25T14:05:40;2.42;;;1.25;;
50689;SDS011;71367;48.298;11.238;2024-03-25T14:20:42;4.38;;;1.45;;
50689;SDS011;71367;48.298;11.238;2024-03-25T14:35:45;3.38;;;1.63;;
50689;SDS011;71367;48.298;11.238;2024-03-25T14:50:47;3.05;;;1.65;;
50689;SDS011;71367;48.298;11.238;2024-03-25T15:05:49;3.70;;;1.40;;
50689;SDS011;71367;48.298;11.238;2024-03-25T15:21:00;4.97;;;2.00;;
50689;SDS011;71367;48.298;11.238;2024-03-25T15:36:03;4.50;;;1.60;;
50689;SDS011;71367;48.298;11.238;2024-03-25T15:51:06;3.92;;;1.98;;
50689;SDS011;71367;48.298;11.238;2024-03-25T16:06:08;3.95;;;1.98;;
50689;SDS011;71367;48.298;11.238;2024-03-25T16:21:16;5.20;;;2.08;;
50689;SDS011;71367;48.298;11.238;2024-03-25T16:36:19;4.25;;;1.80;;
50689;SDS011;71367;48.298;11.238;2024-03-25T16:51:21;4.07;;;2.17;;
50689;SDS011;71367;48.298;11.238;2024-03-25T17:06:24;5.25;;;2.22;;
50689;SDS011;71367;48.298;11.238;2024-03-25T17:21:26;5.50;;;2.30;;
50689;SDS011;71367;48.298;11.238;2024-03-25T17:36:29;4.22;;;1.80;;
50689;SDS011;71367;48.298;11.238;2024-03-25T17:51:31;6.72;;;2.67;;
50689;SDS011;71367;48.298;11.238;2024-03-25T18:06:33;7.47;;;2.35;;
50689;SDS011;71367;48.298;11.238;2024-03-25T18:21:36;3.90;;;2.00;;
50689;SDS011;71367;48.298;11.238;2024-03-25T18:36:38;5.55;;;2.20;;
50689;SDS011;71367;48.298;11.238;2024-03-25T18:51:40;3.20;;;1.83;;
50689;SDS011;71367;48.298;11.238;2024-03-25T19:06:42;5.47;;;2.35;;
50689;SDS011;71367;48.298;11.238;2024-03-25T19:21:45;6.50;;;2.42;;
50689;SDS011;71367;48.298;11.238;2024-03-25T19:36:47;5.93;;;2.40;;
50689;SDS011;71367;48.298;11.238;2024-03-25T19:51:49;6.53;;;2.67;;
50689;SDS011;71367;48.298;11.238;2024-03-25T20:06:52;6.32;;;2.40;;
50689;SDS011;71367;48.298;11.238;2024-03-25T20:21:54;6.50;;;2.47;;
50689;SDS011;71367;48.298;11.238;2024-03-25T20:36:56;6.90;;;2.75;;
50689;SDS011;71367;48.298;11.238;2024-03-25T20:51:58;8.48;;;3.10;;
50689;SDS011;71367;48.298;11.238;2024-03-25T21:07:01;6.63;;;3.53;;
50689;SDS011;71367;48.298;11.238;2024-03-25T21:22:03;5.85;;;3.00;;
50689;SDS011;71367;48.298;11.238;2024-03-25T21:37:06;7.45;;;3.70;;
50689;SDS011;71367;48.298;11.238;2024-03-25T21:52:08;5.05;;;3.20;;
50689;SDS011;71367;48.298;11.238;2024-03-25T22:07:10;9.75;;;4.20;;
50689;SDS011;71367;48.298;11.238;2024-03-25T22:22:12;6.05;;;3.55;;
50689;SDS011;71367;48.298;11.238;2024-03-25T22:37:15;10.85;;;3.28;;
50689;SDS011;71367;48.298;11.238;2024-03-25T22:52:17;6.70;;;3.95;;
50689;SDS011;71367;48.298;11.238;2024-03-25T23:07:20;5.97;;;3.70;;
50689;SDS011;71367;48.298;11.238;2024-03-25T23:22:22;9.30;;;3.50;;
50689;SDS011;71367;48.298;11.238;2024-03-25T23:37:24;8.27;;;3.60;;
50689;SDS011;71367;48.298;11.238;2024-03-25T23:52:26;14.20;;;4.40;;
